Time;durP1;ratioP1;P1;durP2;ratioP2;P2;SDS_P1;SDS_P2;PMS_P1;PMS_P2;Temp;Humidity;BMP_temperature;BMP_pressure;BME280_temperature;BME280_humidity;BME280_pressure;Samples;Min_cycle;Max_cycle;Signal;HPM_P1;HPM_P2
2021/01/21 00:00:14;;;;;;;72.90;25.55;;;;;;;-7.40;87.75;99765.16;3511213;28;20048;-51
2021/01/21 00:01:56;;;;;;;82.70;29.67;;;;;;;-7.39;87.92;99760.28;3511004;28;20051;-51
2021/01/21 00:03:38;;;;;;;78.75;28.67;;;;;;;-7.36;87.91;99758.75;3516886;28;20040;-53
2021/01/21 00:05:20;;;;;;;64.72;25.52;;;;;;;-7.35;87.56;99766.44;3506673;28;20602;-50
2021/01/21 00:07:02;;;;;;;70.53;26.58;;;;;;;-7.33;87.64;99769.97;3511972;28;20429;-50
2021/01/21 00:08:43;;;;;;;71.88;25.17;;;;;;;-7.31;87.56;99772.63;3510151;28;20098;-53
2021/01/21 00:10:25;;;;;;;79.13;28.83;;;;;;;-7.29;87.63;99766.13;3515157;28;20048;-52
2021/01/21 00:12:08;;;;;;;64.88;24.00;;;;;;;-7.28;87.44;99772.91;3509376;28;20052;-53
2021/01/21 00:13:49;;;;;;;68.30;27.17;;;;;;;-7.25;87.77;99783.25;3515527;28;20048;-51
2021/01/21 00:15:31;;;;;;;73.75;25.70;;;;;;;-7.25;87.66;99769.00;3510071;28;20080;-51
2021/01/21 00:17:13;;;;;;;70.93;25.20;;;;;;;-7.24;87.38;99763.22;3516025;28;20052;-51
2021/01/21 00:18:54;;;;;;;81.40;26.23;;;;;;;-7.22;87.62;99759.19;3507607;28;20055;-54
2021/01/21 00:20:36;;;;;;;85.50;29.05;;;;;;;-7.21;87.67;99760.94;3516295;28;20040;-50
2021/01/21 00:22:18;;;;;;;70.85;27.17;;;;;;;-7.20;87.76;99761.84;3507755;28;20055;-50
2021/01/21 00:24:00;;;;;;;69.55;26.20;;;;;;;-7.19;87.79;99763.59;3512056;28;20047;-44
2021/01/21 00:25:41;;;;;;;66.82;26.58;;;;;;;-7.19;87.66;99761.06;3508460;28;20044;-44
2021/01/21 00:27:23;;;;;;;74.55;27.77;;;;;;;-7.18;87.61;99764.50;3516029;28;20047;-44
2021/01/21 00:29:05;;;;;;;83.05;30.08;;;;;;;-7.16;87.81;99768.91;3510760;28;20397;-44
2021/01/21 00:30:46;;;;;;;71.15;26.52;;;;;;;-7.16;87.60;99776.47;3518124;28;20082;-44
2021/01/21 00:32:28;;;;;;;82.57;31.10;;;;;;;-7.13;87.85;99763.25;3511018;28;20549;-44
2021/01/21 00:34:11;;;;;;;81.55;28.67;;;;;;;-7.14;87.78;99764.88;3525700;28;20052;-44
2021/01/21 00:35:53;;;;;;;74.38;29.30;;;;;;;-7.12;87.71;99765.88;3510236;28;20496;-45
2021/01/21 00:37:35;;;;;;;77.07;28.05;;;;;;;-7.13;87.81;99764.13;3511779;28;20205;-44
2021/01/21 00:39:16;;;;;;;72.43;28.73;;;;;;;-7.12;87.81;99767.53;3508992;28;20424;-44
2021/01/21 00:40:58;;;;;;;62.42;24.50;;;;;;;-7.10;87.91;99755.94;3511485;28;20052;-44
2021/01/21 00:42:40;;;;;;;75.47;26.23;;;;;;;-7.10;87.66;99760.97;3508918;28;20048;-44
2021/01/21 00:44:22;;;;;;;73.95;27.17;;;;;;;-7.10;87.44;99750.88;3511807;28;20055;-44
2021/01/21 00:46:03;;;;;;;69.18;24.48;;;;;;;-7.09;87.57;99750.16;3508831;28;20386;-44
2021/01/21 00:47:45;;;;;;;76.85;26.48;;;;;;;-7.08;87.72;99742.72;3511421;28;20052;-44
2021/01/21 00:49:27;;;;;;;62.13;24.60;;;;;;;-7.08;87.60;99750.28;3508942;28;20062;-43
2021/01/21 00:51:08;;;;;;;73.30;27.33;;;;;;;-7.07;87.61;99738.56;3511175;28;20059;-44
2021/01/21 00:52:51;;;;;;;66.10;24.55;;;;;;;-7.06;87.50;99743.72;3509451;28;20527;-44
2021/01/21 00:54:32;;;;;;;61.25;23.23;;;;;;;-7.06;87.33;99746.25;3510458;28;20626;-44
2021/01/21 00:56:14;;;;;;;76.32;28.65;;;;;;;-7.05;87.39;99737.91;3509826;28;20059;-44
2021/01/21 00:57:56;;;;;;;68.68;25.80;;;;;;;-7.05;87.62;99737.91;3510192;28;20101;-44
2021/01/21 00:59:37;;;;;;;66.60;27.65;;;;;;;-7.04;87.68;99734.66;3510178;28;20047;-44
2021/01/21 01:01:19;;;;;;;69.65;25.98;;;;;;;-7.03;87.86;99731.38;3510046;28;20509;-44
2021/01/21 01:03:01;;;;;;;66.80;26.00;;;;;;;-7.03;87.83;99733.00;3510088;28;20051;-43
2021/01/21 01:04:42;;;;;;;79.32;27.70;;;;;;;-7.02;87.75;99734.78;3509706;28;20505;-43
2021/01/21 01:06:24;;;;;;;70.93;24.52;;;;;;;-7.02;87.75;99737.31;3510065;28;20109;-44
2021/01/21 01:08:06;;;;;;;73.65;30.45;;;;;;;-7.01;87.75;99734.03;3509616;28;20052;-44
2021/01/21 01:09:48;;;;;;;72.50;25.27;;;;;;;-7.01;87.67;99732.41;3508515;28;20048;-43
2021/01/21 01:11:30;;;;;;;70.60;25.27;;;;;;;-6.99;87.55;99742.59;3507706;28;20047;-43
2021/01/21 01:13:11;;;;;;;76.50;29.00;;;;;;;-6.98;87.76;99738.44;3509852;28;20051;-43
2021/01/21 01:14:53;;;;;;;84.57;30.05;;;;;;;-6.97;87.87;99733.53;3507574;28;20060;-44
2021/01/21 01:16:34;;;;;;;69.35;25.83;;;;;;;-6.96;87.87;99741.97;3508939;28;20075;-43
2021/01/21 01:18:16;;;;;;;73.32;26.30;;;;;;;-6.95;87.98;99747.13;3508204;28;20044;-43
2021/01/21 01:19:58;;;;;;;71.40;25.92;;;;;;;-6.95;88.00;99737.06;3509135;28;20124;-43
2021/01/21 01:21:40;;;;;;;64.70;26.17;;;;;;;-6.93;88.07;99725.44;3508407;28;20101;-43
2021/01/21 01:23:22;;;;;;;61.78;24.98;;;;;;;-6.92;88.00;99723.81;3510132;28;20052;-43
2021/01/21 01:25:04;;;;;;;77.70;26.27;;;;;;;-6.90;88.06;99722.31;3511207;28;20040;-43
2021/01/21 01:26:46;;;;;;;73.65;26.42;;;;;;;-6.90;88.14;99715.63;3509224;28;20080;-43
2021/01/21 01:28:28;;;;;;;68.50;24.73;;;;;;;-6.89;87.89;99724.97;3508987;28;20051;-43
2021/01/21 01:30:10;;;;;;;71.53;26.50;;;;;;;-6.87;87.78;99720.03;3510359;28;20527;-43
2021/01/21 01:31:52;;;;;;;69.00;27.38;;;;;;;-6.86;87.86;99720.16;3508752;28;20055;-44
2021/01/21 01:33:34;;;;;;;60.75;24.13;;;;;;;-6.84;87.70;99717.78;3510335;28;20425;-44
2021/01/21 01:35:16;;;;;;;79.07;26.48;;;;;;;-6.83;87.91;99712.84;3508889;28;20566;-43
2021/01/21 01:36:58;;;;;;;83.43;26.42;;;;;;;-6.82;88.06;99711.22;3510515;28;20048;-44
2021/01/21 01:38:41;;;;;;;65.88;26.27;;;;;;;-6.80;87.83;99712.22;3508094;28;20044;-43
2021/01/21 01:40:23;;;;;;;65.15;26.10;;;;;;;-6.79;87.78;99714.00;3508748;28;20063;-44
2021/01/21 01:42:08;;;;;;;71.10;24.42;;;;;;;-6.77;88.08;99721.69;3508954;28;20044;-44
2021/01/21 01:43:50;;;;;;;78.28;26.42;;;;;;;-6.75;88.14;99718.53;3510335;28;20513;-44
2021/01/21 01:45:32;;;;;;;71.55;26.67;;;;;;;-6.73;88.08;99716.13;3508755;28;20076;-44
2021/01/21 01:47:15;;;;;;;73.72;26.40;;;;;;;-6.73;88.21;99708.56;3509631;28;20048;-44
2021/01/21 01:48:58;;;;;;;68.20;25.35;;;;;;;-6.71;88.02;99709.56;3508450;28;20109;-44
2021/01/21 01:50:40;;;;;;;78.82;29.00;;;;;;;-6.69;88.15;99710.59;3510589;28;20166;-52
2021/01/21 01:52:21;;;;;;;67.88;26.08;;;;;;;-6.69;88.12;99703.03;3508512;28;20056;-51
2021/01/21 01:54:05;;;;;;;66.45;24.73;;;;;;;-6.68;88.06;99705.66;3510575;28;20424;-44
2021/01/21 01:55:46;;;;;;;70.85;25.42;;;;;;;-6.65;88.23;99705.03;3508330;28;20413;-43
2021/01/21 01:57:28;;;;;;;71.20;25.65;;;;;;;-6.64;88.17;99696.69;3510608;28;20056;-52
2021/01/21 01:59:11;;;;;;;60.17;24.73;;;;;;;-6.64;88.05;99690.03;3508364;28;20047;-51
2021/01/21 02:00:54;;;;;;;55.58;23.48;;;;;;;-6.62;88.15;99695.22;3510507;28;20059;-54
2021/01/21 02:02:36;;;;;;;71.03;24.60;;;;;;;-6.60;87.98;99687.75;3508343;28;20048;-51
2021/01/21 02:04:18;;;;;;;65.43;24.20;;;;;;;-6.59;88.09;99680.28;3510825;28;20055;-53
2021/01/21 02:05:59;;;;;;;62.90;23.83;;;;;;;-6.58;88.13;99684.59;3507969;28;20044;-52
2021/01/21 02:07:41;;;;;;;57.28;23.83;;;;;;;-6.56;88.25;99682.19;3509374;28;20095;-52
2021/01/21 02:09:23;;;;;;;75.82;26.33;;;;;;;-6.55;88.13;99672.25;3507047;28;20467;-53
2021/01/21 02:11:23;;;;;;;73.45;28.38;;;;;;;-6.54;88.04;99676.50;3510312;28;20469;-53
2021/01/21 02:13:32;;;;;;;63.28;24.38;;;;;;;-6.52;88.06;99685.06;3507866;28;20777;-52
2021/01/21 02:15:25;;;;;;;54.67;21.25;;;;;;;-6.51;87.89;99681.81;3510429;28;20245;-51
2021/01/21 02:17:11;;;;;;;67.25;26.10;;;;;;;-6.48;88.15;99683.69;3508457;28;20048;-53
2021/01/21 02:19:17;;;;;;;59.47;24.02;;;;;;;-6.47;88.28;99688.84;3508520;28;20048;-50
2021/01/21 02:21:43;;;;;;;74.88;27.98;;;;;;;-6.44;88.36;99688.22;3509628;28;20052;-51
2021/01/21 02:23:55;;;;;;;;;;;;;;;-6.44;88.43;99678.16;3507360;28;20074;-44
2021/01/21 02:25:44;;;;;;;65.03;24.75;;;;;;;-6.43;88.41;99673.22;3508638;28;20330;-43
2021/01/21 02:27:32;;;;;;;64.70;27.40;;;;;;;-6.41;88.40;99680.00;3509612;28;20064;-44
2021/01/21 02:29:20;;;;;;;68.25;27.15;;;;;;;-6.40;88.49;99675.09;3508291;28;20505;-43
2021/01/21 02:31:14;;;;;;;67.32;26.42;;;;;;;-6.38;88.47;99677.75;3509210;28;20397;-45
2021/01/21 02:33:16;;;;;;;60.37;23.23;;;;;;;-6.38;88.41;99663.47;3508159;28;20079;-51
2021/01/21 02:35:04;;;;;;;69.45;25.58;;;;;;;-6.37;88.51;99667.78;3510377;28;20285;-50
2021/01/21 02:36:52;;;;;;;67.65;24.90;;;;;;;-6.36;88.36;99664.47;3507617;28;20055;-52
2021/01/21 02:38:37;;;;;;;60.53;23.55;;;;;;;-6.34;88.52;99665.50;3510261;28;20052;-53
2021/01/21 02:40:20;;;;;;;50.63;20.20;;;;;;;-6.33;88.32;99666.38;3507497;28;20052;-53
2021/01/21 02:42:04;;;;;;;60.97;23.75;;;;;;;-6.32;88.46;99658.94;3510281;28;20079;-51
2021/01/21 02:43:50;;;;;;;64.10;23.77;;;;;;;-6.30;88.41;99659.94;3506709;28;20044;-49
2021/01/21 02:45:32;;;;;;;54.30;23.08;;;;;;;-6.28;88.54;99662.59;3510033;28;20051;-51
2021/01/21 02:47:16;;;;;;;58.60;22.70;;;;;;;-6.27;88.51;99666.84;3507913;28;20584;-50
2021/01/21 02:48:58;;;;;;;63.33;23.73;;;;;;;-6.27;88.70;99680.38;3509645;28;20412;-51
2021/01/21 02:50:41;;;;;;;55.92;22.33;;;;;;;-6.24;88.77;99678.06;3508091;28;20059;-50
2021/01/21 02:52:32;;;;;;;63.60;23.90;;;;;;;-6.22;88.72;99679.84;3508283;28;20055;-51
2021/01/21 02:54:34;;;;;;;52.55;20.90;;;;;;;-6.20;88.79;99668.22;3509568;28;20398;-43
2021/01/21 02:56:21;;;;;;;61.63;24.00;;;;;;;-6.19;88.68;99678.44;3508049;28;20048;-44
2021/01/21 02:58:07;;;;;;;56.53;23.67;;;;;;;-6.18;88.68;99661.66;3509538;28;20043;-43
2021/01/21 02:59:49;;;;;;;65.25;24.13;;;;;;;-6.16;88.86;99668.59;3507854;28;20059;-43
2021/01/21 03:01:34;;;;;;;68.18;25.88;;;;;;;-6.14;88.89;99656.97;3509858;28;20071;-44
2021/01/21 03:03:19;;;;;;;68.53;24.70;;;;;;;-6.13;88.73;99655.31;3507820;28;20048;-43
2021/01/21 03:05:03;;;;;;;57.72;21.65;;;;;;;-6.11;88.79;99661.38;3509719;28;20044;-44
2021/01/21 03:06:47;;;;;;;61.65;23.60;;;;;;;-6.11;88.68;99656.31;3508391;28;20552;-45
2021/01/21 03:08:29;;;;;;;64.32;23.10;;;;;;;-6.10;88.55;99656.44;3507828;28;20570;-43
2021/01/21 03:10:11;;;;;;;61.75;24.60;;;;;;;-6.08;88.67;99661.63;3507664;28;20059;-44
2021/01/21 03:11:53;;;;;;;56.85;21.55;;;;;;;-6.08;88.67;99664.16;3509701;28;20052;-44
2021/01/21 03:13:35;;;;;;;56.92;24.20;;;;;;;-6.07;88.71;99670.97;3506855;28;20412;-44
2021/01/21 03:15:16;;;;;;;55.20;22.88;;;;;;;-6.07;88.71;99665.94;3509977;28;20109;-44
2021/01/21 03:16:58;;;;;;;51.40;22.08;;;;;;;-6.06;88.79;99661.00;3507386;28;20071;-44
2021/01/21 03:18:40;;;;;;;59.92;22.60;;;;;;;-6.05;88.70;99660.22;3509791;28;20094;-43
2021/01/21 03:20:22;;;;;;;68.30;25.52;;;;;;;-6.03;89.06;99670.44;3509336;28;20410;-43
2021/01/21 03:22:04;;;;;;;58.53;22.27;;;;;;;-6.01;89.00;99670.56;3509779;28;20523;-44
2021/01/21 03:23:46;;;;;;;60.50;23.27;;;;;;;-6.00;89.08;99670.69;3507163;28;20047;-43
2021/01/21 03:25:28;;;;;;;68.18;22.83;;;;;;;-5.98;88.93;99658.19;3509972;28;20055;-44
2021/01/21 03:27:09;;;;;;;66.50;23.77;;;;;;;-5.98;88.87;99660.72;3507096;28;20135;-44
2021/01/21 03:28:51;;;;;;;64.95;23.52;;;;;;;-5.98;89.11;99659.06;3509795;28;20047;-43
2021/01/21 03:30:33;;;;;;;60.03;23.60;;;;;;;-5.97;89.02;99658.31;3506560;28;20441;-44
2021/01/21 03:32:16;;;;;;;60.75;23.45;;;;;;;-5.96;89.34;99657.53;3509450;28;20063;-44
2021/01/21 03:34:00;;;;;;;61.45;23.73;;;;;;;-5.95;89.34;99660.94;3506628;28;20101;-44
2021/01/21 03:35:42;;;;;;;62.38;24.20;;;;;;;-5.93;89.31;99664.50;3509247;28;20059;-44
2021/01/21 03:37:24;;;;;;;67.85;24.77;;;;;;;-5.91;89.25;99670.53;3506355;28;20052;-43
2021/01/21 03:39:05;;;;;;;62.47;24.63;;;;;;;-5.91;89.37;99668.88;3509514;28;20052;-43
2021/01/21 03:40:47;;;;;;;70.10;25.98;;;;;;;-5.89;89.30;99659.78;3506338;28;20044;-44
2021/01/21 03:42:28;;;;;;;67.45;24.95;;;;;;;-5.87;89.41;99672.53;3509201;28;20085;-43
2021/01/21 03:44:10;;;;;;;63.67;22.35;;;;;;;-5.87;89.48;99675.94;3506558;28;20044;-44
2021/01/21 03:45:52;;;;;;;64.10;23.70;;;;;;;-5.86;89.30;99672.66;3509274;28;20109;-44
2021/01/21 03:47:33;;;;;;;60.13;22.63;;;;;;;-5.83;89.41;99671.13;3506257;28;20524;-44
2021/01/21 03:49:15;;;;;;;61.47;23.88;;;;;;;-5.83;89.41;99661.91;3509184;28;20056;-43
2021/01/21 03:50:56;;;;;;;58.75;23.50;;;;;;;-5.81;89.42;99662.00;3506273;28;20068;-43
2021/01/21 03:52:39;;;;;;;51.72;21.23;;;;;;;-5.81;89.41;99670.50;3509115;28;20059;-43
2021/01/21 03:54:20;;;;;;;60.42;22.98;;;;;;;-5.78;89.50;99655.56;3506445;28;20047;-43
2021/01/21 03:56:02;;;;;;;63.40;21.25;;;;;;;-5.77;89.33;99657.34;3509295;28;20109;-43
2021/01/21 03:57:44;;;;;;;60.78;23.58;;;;;;;-5.76;89.47;99658.19;3505196;28;20063;-43
2021/01/21 03:59:25;;;;;;;70.30;25.02;;;;;;;-5.74;89.51;99649.09;3508746;28;20075;-43
2021/01/21 04:01:07;;;;;;;65.00;25.50;;;;;;;-5.74;89.48;99650.00;3506758;28;20051;-43
2021/01/21 04:02:48;;;;;;;70.35;24.90;;;;;;;-5.73;89.50;99648.34;3509613;28;20063;-43
2021/01/21 04:04:30;;;;;;;64.65;22.75;;;;;;;-5.72;89.57;99651.00;3509300;28;20048;-43
2021/01/21 04:06:12;;;;;;;60.95;22.23;;;;;;;-5.70;89.63;99656.16;3511982;28;20074;-43
2021/01/21 04:07:54;;;;;;;59.40;23.52;;;;;;;-5.69;89.55;99647.81;3509178;28;20544;-43
2021/01/21 04:09:35;;;;;;;59.92;21.88;;;;;;;-5.68;89.49;99659.69;3510252;28;20063;-43
2021/01/21 04:11:17;;;;;;;63.05;22.85;;;;;;;-5.67;89.64;99663.97;3509439;28;20039;-43
2021/01/21 04:12:59;;;;;;;57.85;22.30;;;;;;;-5.66;89.38;99645.53;3512133;28;20059;-43
2021/01/21 04:14:40;;;;;;;61.17;21.13;;;;;;;-5.66;89.21;99650.59;3508290;28;20558;-44
2021/01/21 04:16:22;;;;;;;62.42;24.30;;;;;;;-5.65;89.48;99652.34;3513690;28;20047;-52
2021/01/21 04:18:04;;;;;;;65.35;23.55;;;;;;;-5.65;89.54;99641.34;3507151;28;20058;-44
2021/01/21 04:19:46;;;;;;;67.53;22.48;;;;;;;-5.64;89.68;99646.53;3513925;28;20059;-44
2021/01/21 04:21:28;;;;;;;65.25;22.10;;;;;;;-5.64;89.55;99644.00;3512917;28;20432;-43
2021/01/21 04:23:10;;;;;;;74.20;25.02;;;;;;;-5.62;89.83;99651.69;3516270;28;20059;-43
2021/01/21 04:24:52;;;;;;;55.33;22.33;;;;;;;-5.60;89.88;99643.50;3512933;28;20039;-44
2021/01/21 04:26:33;;;;;;;65.22;23.30;;;;;;;-5.58;89.88;99653.69;3516200;28;20470;-45
2021/01/21 04:28:16;;;;;;;62.13;21.45;;;;;;;-5.58;89.86;99654.59;3512657;28;20055;-43
2021/01/21 04:29:58;;;;;;;63.83;25.40;;;;;;;-5.57;89.82;99666.44;3516756;28;20048;-53
2021/01/21 04:31:40;;;;;;;57.33;20.80;;;;;;;-5.56;89.63;99652.19;3513949;28;20500;-43
2021/01/21 04:33:23;;;;;;;73.68;25.48;;;;;;;-5.54;89.89;99663.28;3516927;28;20464;-44
2021/01/21 04:35:06;;;;;;;65.40;24.02;;;;;;;-5.54;89.91;99658.22;3512980;28;20090;-44
2021/01/21 04:36:48;;;;;;;61.75;22.05;;;;;;;-5.53;89.86;99667.56;3516474;28;20090;-46
2021/01/21 04:38:30;;;;;;;72.78;24.58;;;;;;;-5.50;89.93;99662.75;3514903;28;20048;-53
2021/01/21 04:40:13;;;;;;;62.05;21.77;;;;;;;-5.50;89.86;99660.22;3515776;28;20083;-51
2021/01/21 04:41:54;;;;;;;64.65;24.58;;;;;;;-5.50;89.87;99658.56;3513215;28;20058;-50
2021/01/21 04:43:36;;;;;;;69.43;25.30;;;;;;;-5.48;89.87;99666.25;3513774;28;20048;-52
2021/01/21 04:45:18;;;;;;;63.55;23.23;;;;;;;-5.47;89.98;99659.59;3515461;28;20145;-54
2021/01/21 04:46:59;;;;;;;67.47;24.27;;;;;;;-5.45;89.76;99658.06;3514361;28;20059;-44
2021/01/21 04:48:41;;;;;;;81.60;27.80;;;;;;;-5.44;89.94;99654.75;3513516;28;20476;-44
2021/01/21 04:50:24;;;;;;;74.18;26.58;;;;;;;-5.45;90.07;99656.41;3514405;28;20050;-45
2021/01/21 04:52:08;;;;;;;77.82;24.83;;;;;;;-5.45;89.89;99656.41;3514004;28;20534;-44
2021/01/21 04:53:56;;;;;;;69.88;24.98;;;;;;;-5.44;90.03;99643.00;3512061;28;20089;-55
2021/01/21 04:55:43;;;;;;;81.95;28.63;;;;;;;-5.43;89.89;99646.41;3513520;28;20511;-54
2021/01/21 04:57:31;;;;;;;67.75;23.13;;;;;;;-5.41;89.94;99648.28;3508022;28;20052;-54
2021/01/21 04:59:18;;;;;;;77.82;25.77;;;;;;;-5.40;89.96;99662.69;3516162;28;20052;-54
2021/01/21 05:01:02;;;;;;;63.97;25.40;;;;;;;-5.38;89.96;99652.69;3511158;28;20501;-50
2021/01/21 05:02:45;;;;;;;67.22;24.75;;;;;;;-5.38;90.00;99648.50;3514631;28;20097;-52
2021/01/21 05:04:27;;;;;;;75.45;24.45;;;;;;;-5.37;89.88;99645.22;3509747;28;20066;-43
2021/01/21 05:06:09;;;;;;;71.85;28.38;;;;;;;-5.36;90.02;99641.06;3514827;28;20467;-45
2021/01/21 05:07:52;;;;;;;67.05;23.48;;;;;;;-5.35;89.85;99651.28;3512446;28;20054;-43
2021/01/21 05:09:35;;;;;;;60.08;22.00;;;;;;;-5.34;89.85;99645.44;3512838;28;20048;-43
2021/01/21 05:11:17;;;;;;;73.32;27.38;;;;;;;-5.33;89.75;99649.75;3513677;28;20047;-53
2021/01/21 05:12:59;;;;;;;79.25;25.60;;;;;;;-5.33;89.78;99639.63;3521710;28;20086;-43
2021/01/21 05:14:40;;;;;;;73.05;26.40;;;;;;;-5.31;89.93;99657.44;3511513;28;20090;-53
2021/01/21 05:16:22;;;;;;;74.53;26.23;;;;;;;-5.30;89.99;99651.59;3510234;28;20044;-53
2021/01/21 05:18:05;;;;;;;72.15;22.95;;;;;;;-5.30;89.79;99652.50;3508733;28;20406;-46
2021/01/21 05:19:48;;;;;;;73.00;27.15;;;;;;;-5.29;89.73;99654.25;3510618;28;20075;-46
2021/01/21 05:21:30;;;;;;;80.30;28.50;;;;;;;-5.28;89.83;99657.69;3508184;28;20077;-42
2021/01/21 05:23:13;;;;;;;64.38;24.23;;;;;;;-5.27;89.63;99663.63;3511279;28;20044;-44
2021/01/21 05:24:55;;;;;;;66.32;24.17;;;;;;;-5.27;89.60;99656.91;3509034;28;20086;-44
2021/01/21 05:26:38;;;;;;;84.32;28.70;;;;;;;-5.26;89.80;99665.38;3496910;28;20226;-44
2021/01/21 05:28:20;;;;;;;76.68;27.33;;;;;;;-5.25;89.75;99657.03;3505195;28;20052;-54
2021/01/21 05:30:04;;;;;;;67.22;26.00;;;;;;;-5.23;89.67;99658.03;3511390;28;20512;-44
2021/01/21 05:31:47;;;;;;;71.68;24.25;;;;;;;-5.24;89.76;99662.19;3505570;28;20201;-44
2021/01/21 05:33:29;;;;;;;71.13;26.83;;;;;;;-5.22;89.68;99659.78;3511170;28;20158;-50
2021/01/21 05:35:14;;;;;;;69.82;26.50;;;;;;;-5.23;89.69;99658.88;3508567;28;20101;-44
2021/01/21 05:36:56;;;;;;;65.03;24.45;;;;;;;-5.23;89.59;99653.84;3510772;28;20056;-44
2021/01/21 05:38:41;;;;;;;70.28;23.63;;;;;;;-5.22;89.66;99669.91;3508326;28;20069;-44
2021/01/21 05:40:24;;;;;;;71.55;28.70;;;;;;;-5.21;89.80;99664.06;3511032;28;20052;-44
2021/01/21 05:42:07;;;;;;;74.25;25.38;;;;;;;-5.21;89.64;99659.91;3508111;28;20129;-43
2021/01/21 05:43:48;;;;;;;76.55;25.42;;;;;;;-5.21;89.65;99667.50;3510921;28;20048;-44
2021/01/21 05:45:30;;;;;;;73.85;28.23;;;;;;;-5.19;89.72;99671.03;3508306;28;20428;-44
2021/01/21 05:47:11;;;;;;;71.25;26.48;;;;;;;-5.17;89.65;99673.66;3509819;28;20059;-44
2021/01/21 05:48:53;;;;;;;70.95;25.52;;;;;;;-5.19;89.48;99660.91;3509262;28;20079;-44
2021/01/21 05:50:35;;;;;;;72.97;26.38;;;;;;;-5.17;89.56;99666.97;3509878;28;20051;-45
2021/01/21 05:52:19;;;;;;;68.55;24.13;;;;;;;-5.16;89.63;99666.19;3509433;28;20080;-44
2021/01/21 05:54:01;;;;;;;61.63;24.42;;;;;;;-5.16;89.61;99673.78;3508798;28;20052;-43
2021/01/21 05:55:44;;;;;;;69.63;25.90;;;;;;;-5.16;89.46;99676.31;3508814;28;20527;-44
2021/01/21 05:57:26;;;;;;;71.88;25.35;;;;;;;-5.14;89.44;99679.84;3508701;28;20086;-45
2021/01/21 05:59:08;;;;;;;69.18;24.52;;;;;;;-5.13;89.35;99676.53;3510175;28;20112;-44
2021/01/21 06:00:50;;;;;;;75.32;23.95;;;;;;;-5.13;89.54;99675.66;3508473;28;20424;-52
2021/01/21 06:02:33;;;;;;;71.30;25.02;;;;;;;-5.11;89.31;99676.66;3507026;28;20044;-54
2021/01/21 06:04:15;;;;;;;68.47;23.88;;;;;;;-5.11;89.34;99661.47;3508162;28;20048;-54
2021/01/21 06:05:57;;;;;;;50.95;16.98;;;;;;;-5.08;89.36;99666.75;3508619;28;20109;-54
2021/01/21 06:07:39;;;;;;;69.03;24.70;;;;;;;-5.08;89.42;99676.00;3508204;28;20055;-44
2021/01/21 06:09:27;;;;;;;69.30;23.20;;;;;;;-5.06;89.54;99674.47;3508794;28;20051;-45
2021/01/21 06:11:10;;;;;;;71.38;25.52;;;;;;;-5.03;89.41;99674.72;3508563;28;20366;-44
2021/01/21 06:12:53;;;;;;;58.60;22.52;;;;;;;-5.01;89.45;99681.63;3507665;28;20044;-44
2021/01/21 06:14:35;;;;;;;69.20;24.08;;;;;;;-4.99;89.48;99671.63;3506486;28;20044;-43
2021/01/21 06:16:23;;;;;;;77.93;26.45;;;;;;;-4.98;89.39;99670.84;3507403;28;20051;-44
2021/01/21 06:18:07;;;;;;;70.45;24.90;;;;;;;-4.95;89.20;99681.16;3506779;28;20048;-43
2021/01/21 06:19:49;;;;;;;74.00;23.65;;;;;;;-4.94;89.33;99677.88;3507737;28;20078;-44
2021/01/21 06:21:35;;;;;;;76.35;27.35;;;;;;;-4.92;89.29;99669.63;3506736;28;20040;-44
2021/01/21 06:23:21;;;;;;;66.82;23.45;;;;;;;-4.88;89.11;99667.34;3508467;28;20052;-44
2021/01/21 06:25:05;;;;;;;65.70;25.13;;;;;;;-4.85;89.29;99670.09;3505599;28;20077;-44
2021/01/21 06:26:49;;;;;;;66.20;25.42;;;;;;;-4.85;89.25;99668.44;3507657;28;20052;-43
2021/01/21 06:28:32;;;;;;;71.10;24.85;;;;;;;-4.83;89.31;99661.84;3505400;28;20047;-44
2021/01/21 06:30:17;;;;;;;72.38;24.90;;;;;;;-4.80;89.10;99659.56;3507599;28;20526;-43
2021/01/21 06:32:04;;;;;;;81.85;30.52;;;;;;;-4.77;89.23;99667.38;3503720;28;20047;-43
2021/01/21 06:33:51;;;;;;;71.90;27.10;;;;;;;-4.74;89.16;99661.66;3510230;28;20067;-44
2021/01/21 06:35:35;;;;;;;70.38;25.90;;;;;;;-4.73;89.25;99665.94;3507765;28;20126;-44
2021/01/21 06:37:18;;;;;;;85.82;29.83;;;;;;;-4.72;89.10;99663.53;3510613;28;20105;-44
2021/01/21 06:39:00;;;;;;;73.33;26.30;;;;;;;-4.68;89.23;99664.63;3507782;28;20416;-43
2021/01/21 06:40:47;;;;;;;78.82;27.67;;;;;;;-4.67;88.93;99676.50;3509289;28;20285;-42
2021/01/21 06:42:31;;;;;;;72.60;24.95;;;;;;;-4.66;88.89;99665.63;3502754;28;20436;-43
2021/01/21 06:44:16;;;;;;;78.53;28.67;;;;;;;-4.63;88.89;99662.44;3508570;28;20044;-43
2021/01/21 06:45:58;;;;;;;75.75;26.85;;;;;;;-4.62;89.13;99669.25;3508517;28;20098;-44
2021/01/21 06:47:40;;;;;;;71.30;26.85;;;;;;;-4.61;89.06;99669.38;3507685;28;20048;-44
2021/01/21 06:49:22;;;;;;;71.45;25.58;;;;;;;-4.59;88.95;99667.84;3509274;28;20051;-44
2021/01/21 06:51:07;;;;;;;71.03;25.92;;;;;;;-4.57;89.08;99668.81;3507927;28;20563;-44
2021/01/21 06:52:49;;;;;;;84.97;29.55;;;;;;;-4.55;88.72;99663.88;3506427;28;20052;-44
2021/01/21 06:54:31;;;;;;;75.30;27.60;;;;;;;-4.53;89.01;99650.56;3503076;28;20467;-44
2021/01/21 06:56:13;;;;;;;79.05;27.73;;;;;;;-4.50;88.85;99665.09;3509192;28;20083;-43
2021/01/21 06:57:55;;;;;;;64.95;22.60;;;;;;;-4.47;88.98;99670.41;3507474;28;20047;-44
2021/01/21 06:59:53;;;;;;;77.90;32.08;;;;;;;-4.45;88.68;99655.28;3508923;28;20446;-44
2021/01/21 07:01:51;;;;;;;72.43;28.92;;;;;;;-4.43;88.64;99656.31;3504879;28;20532;-52
2021/01/21 07:03:33;;;;;;;84.13;29.08;;;;;;;-4.40;88.74;99649.81;3507182;28;20044;-52
2021/01/21 07:05:17;;;;;;;72.93;27.45;;;;;;;-4.37;88.70;99661.78;3507157;28;20055;-53
2021/01/21 07:07:15;;;;;;;75.03;27.58;;;;;;;-4.34;88.54;99654.44;3508284;28;20094;-46
2021/01/21 07:09:04;;;;;;;70.40;26.05;;;;;;;-4.30;88.73;99671.59;3503849;28;20063;-51
2021/01/21 07:10:48;;;;;;;82.28;29.40;;;;;;;-4.27;88.45;99669.28;3510026;28;20059;-43
2021/01/21 07:12:30;;;;;;;77.22;27.67;;;;;;;-4.24;88.49;99653.41;3505827;28;20396;-50
2021/01/21 07:14:15;;;;;;;79.00;29.67;;;;;;;-4.21;88.34;99666.31;3509299;28;20105;-53
2021/01/21 07:16:07;;;;;;;72.88;25.65;;;;;;;-4.19;88.57;99654.63;3507692;28;20082;-51
2021/01/21 07:17:50;;;;;;;81.60;28.80;;;;;;;-4.15;88.38;99665.09;3508983;28;20044;-53
2021/01/21 07:19:37;;;;;;;65.90;28.40;;;;;;;-4.12;88.34;99661.03;3508029;28;20044;-52
2021/01/21 07:21:23;;;;;;;75.80;29.42;;;;;;;-4.09;88.19;99662.13;3504830;28;20107;-52
2021/01/21 07:23:07;;;;;;;75.70;27.33;;;;;;;-4.06;88.07;99654.75;3506884;28;20542;-53
2021/01/21 07:24:58;;;;;;;73.38;29.63;;;;;;;-4.02;88.12;99658.38;3507320;28;20051;-53
2021/01/21 07:26:42;;;;;;;81.88;28.70;;;;;;;-4.00;88.08;99659.38;3508567;28;20040;-53
2021/01/21 07:28:23;;;;;;;72.75;28.80;;;;;;;-3.98;88.07;99657.81;3507476;28;20048;-52
2021/01/21 07:30:17;;;;;;;87.85;36.25;;;;;;;-3.97;88.04;99652.00;3509109;28;20048;-54
2021/01/21 07:32:11;;;;;;;74.30;29.63;;;;;;;-3.93;88.17;99651.41;3505933;28;20052;-52
2021/01/21 07:34:31;;;;;;;66.50;24.88;;;;;;;-3.89;88.07;99648.31;3515752;28;20083;-52
2021/01/21 07:36:31;;;;;;;80.82;29.52;;;;;;;-3.85;87.93;99641.81;3503059;28;20043;-53
2021/01/21 07:38:49;;;;;;;74.47;28.30;;;;;;;-3.82;88.05;99652.16;3507914;28;20109;-54
2021/01/21 07:40:44;;;;;;;81.10;29.23;;;;;;;-3.81;88.04;99652.28;3516428;28;20135;-54
2021/01/21 07:42:48;;;;;;;83.75;29.67;;;;;;;-3.78;87.77;99652.50;3509893;28;20047;-50
2021/01/21 07:44:57;;;;;;;74.18;27.15;;;;;;;-3.72;87.75;99646.97;3514026;28;20090;-53
2021/01/21 07:46:40;;;;;;;70.63;27.83;;;;;;;-3.68;87.48;99655.66;3512419;28;20048;-53
2021/01/21 07:48:24;;;;;;;65.10;27.67;;;;;;;-3.66;87.38;99642.34;3509319;28;20071;-52
2021/01/21 07:50:32;;;;;;;70.75;28.88;;;;;;;-3.62;87.19;99643.44;3511420;28;20501;-53
2021/01/21 07:52:16;;;;;;;73.32;27.35;;;;;;;-3.59;87.34;99636.91;3490446;28;20193;-52
2021/01/21 07:54:03;;;;;;;67.25;25.45;;;;;;;-3.52;87.27;99632.25;3514714;28;20058;-53
2021/01/21 07:55:46;;;;;;;75.07;27.50;;;;;;;-3.50;87.05;99641.75;3510609;28;20129;-53
2021/01/21 07:57:28;;;;;;;64.38;27.65;;;;;;;-3.48;87.07;99634.22;3515597;28;20059;-51
2021/01/21 07:59:09;;;;;;;67.38;25.38;;;;;;;-3.43;87.12;99640.47;3510146;28;20063;-53